Aérodrome :
LOGIN :

S'inscrire | Disclaimer

   EN    FR    IT 

 










Légende :    VFR   VFR Marginal   IFR   IFR Intensif   IFR Très Intensif
Visi : 
Plafond : 
>= 8 km
>= 3000ft
5 à 8 km
1000 à 3000 ft
1500m à 5 km
500 à 1000 ft
800 à 1500m
200 à 500 ft
< 800m
< 200 ft
Symboles :   Orages  Brouillard  Fortes neiges  Fortes précipitations  Vent > 20 kt
SIGMETs :   Divers  Orages  Givrage  Turbulence  Onde Orograph.  Cendres Volcan.






- Altitude de l'aérodrome : 19 ft
- Code IATA : LCY


EGLC - London City

DERNIER METAR :
  • 281520Z AUTO 25015G26KT 9999 NCD 07/00 Q0997

METARs EXPIRÉS :
  • 281450Z AUTO 25020G30KT 9999 SCT044 08/00 Q0997
  • 281420Z AUTO 25015KT 9999 FEW033 BKN040 08/01 Q0997
  • 281350Z AUTO 26016KT 9999 BKN031 BKN037 08/02 Q0997
  • 281320Z AUTO 25018KT 9999 BKN030 08/01 Q0997
  • 281250Z AUTO 25013KT 9999 SCT030 08/01 Q0997

TAF TAF EGLC
Valide du 28 à 15h jusqu'au 28 à 21h UTC


281402Z 2815/2821 25013KT 9999 FEW030
PROB30
TEMPO 2815/2818 26016G26KT 8000 -SHRA
ATIS : +44 20 7646 0224



MET'MAP, la Météo Aéronautique d'un coup d'oeil ! - Copyright ORBIFLY Décembre 2007 - Disclaimer

ORBIFLY MET'MAP TEAM :

Programmation & Développement : Alexandra Zaïnal
Sur une idée originale de : Baudouin d'Aumeries
Assistance à la programmation : Marc-Olivier Méhu
Soutien technique & logistique : Manuel Goepfert

Contact : metmap@orbifly.com




SOURCES & CREDITS :

   NOAA